createdAt,value
2022-08-17T00:01:27.188Z,98801.66
2022-08-17T00:04:30.398Z,98801.66
2022-08-17T00:07:33.507Z,98816.38
2022-08-17T00:10:36.563Z,98822.53
2022-08-17T00:13:45.068Z,98815.38
2022-08-17T00:16:55.513Z,98818.63
2022-08-17T00:20:00.767Z,98823.78
2022-08-17T00:23:05.502Z,98816.59
2022-08-17T00:26:08.589Z,98815.13
2022-08-17T00:29:19.553Z,98826.31
2022-08-17T00:33:13.793Z,98820.66
2022-08-17T00:35:46.365Z,98819.94
2022-08-17T00:38:50.506Z,98826.59
2022-08-17T00:41:53.322Z,98818.75
2022-08-17T00:44:57.556Z,98831.63
2022-08-17T00:48:00.341Z,98819.25
2022-08-17T00:51:06.658Z,98811.66
2022-08-17T00:54:11.896Z,98817.53
2022-08-17T00:57:16.600Z,98812.69
2022-08-17T01:00:26.589Z,98809.13
2022-08-17T01:03:30.372Z,98806.97
2022-08-17T01:06:33.985Z,98810.44
2022-08-17T01:09:36.916Z,98803.47
2022-08-17T01:12:39.728Z,98804.38
2022-08-17T01:15:47.567Z,98801.97
2022-08-17T01:18:51.968Z,98808.66
2022-08-17T01:21:58.950Z,98802.19
2022-08-17T01:25:07.220Z,98808.84
2022-08-17T01:28:10.086Z,98806.19
2022-08-17T01:31:15.185Z,98809.34
2022-08-17T01:34:18.978Z,98806.19
2022-08-17T01:37:28.361Z,98807.53
2022-08-17T01:40:42.271Z,98811.19
2022-08-17T01:43:46.113Z,98816.53
2022-08-17T01:46:49.018Z,98827.34
2022-08-17T01:49:52.033Z,98834.16
2022-08-17T01:52:57.108Z,98844.66
2022-08-17T01:56:02.752Z,98843.63
2022-08-17T01:59:06.487Z,98839.91
2022-08-17T02:02:09.740Z,98839.38
2022-08-17T02:05:17.438Z,98831.19
2022-08-17T02:08:20.760Z,98818.81
2022-08-17T02:11:41.712Z,98812.34
2022-08-17T02:14:44.463Z,98809.19
2022-08-17T02:17:47.301Z,98799.34
2022-08-17T02:20:57.527Z,98794.31
2022-08-17T02:24:00.403Z,98804.81
2022-08-17T02:27:04.912Z,98805.69
2022-08-17T02:31:01.383Z,98794.81
2022-08-17T02:33:41.709Z,98783.47
2022-08-17T02:36:46.093Z,98781.31
2022-08-17T02:39:48.915Z,98779.97
2022-08-17T02:42:53.148Z,98781.53
2022-08-17T02:45:56.092Z,98777.22
2022-08-17T02:48:59.026Z,98774.25
2022-08-17T02:52:03.901Z,98780.81
2022-08-17T02:55:07.233Z,98777.66
2022-08-17T02:58:12.302Z,98772.22
2022-08-17T03:01:15.152Z,98786.63
2022-08-17T03:04:17.991Z,98798.63
2022-08-17T03:07:21.244Z,98796.28
2022-08-17T03:10:26.672Z,98788.69
2022-08-17T03:13:31.146Z,98796.28
2022-08-17T03:16:39.362Z,98808.19
2022-08-17T03:19:43.023Z,98809.03
2022-08-17T03:22:48.129Z,98808.06
2022-08-17T03:25:56.619Z,98817.47
2022-08-17T03:29:00.868Z,98823.91
2022-08-17T03:32:11.346Z,98823.88
2022-08-17T03:35:15.319Z,98820.22
2022-08-17T03:38:21.359Z,98809.59
2022-08-17T03:41:24.221Z,98809.44
2022-08-17T03:44:28.434Z,98812.66
2022-08-17T03:47:48.684Z,98822.41
2022-08-17T03:51:12.776Z,98835.81
2022-08-17T03:54:34.518Z,98834.53
2022-08-17T03:57:37.467Z,98844.63
2022-08-17T04:00:45.650Z,98844.50
2022-08-17T04:03:48.474Z,98846.38
2022-08-17T04:06:51.244Z,98841.72
2022-08-17T04:09:54.100Z,98837.22
2022-08-17T04:12:58.348Z,98841.56
2022-08-17T04:16:02.487Z,98841.56
2022-08-17T04:19:07.378Z,98841.38
2022-08-17T04:22:10.219Z,98847.91
2022-08-17T04:25:34.142Z,98839.56
2022-08-17T04:28:36.947Z,98846.41
2022-08-17T04:31:41.152Z,98853.22
2022-08-17T04:34:44.995Z,98854.56
2022-08-17T04:37:47.883Z,98862.06
2022-08-17T04:41:08.075Z,98848.88
2022-08-17T04:44:11.678Z,98816.00
2022-08-17T04:47:17.167Z,98817.19
2022-08-17T04:50:19.899Z,98819.53
2022-08-17T04:53:22.884Z,98821.19
2022-08-17T04:56:26.290Z,98814.31
2022-08-17T04:59:29.216Z,98809.94
2022-08-17T05:02:33.472Z,98794.34
2022-08-17T05:05:38.851Z,98808.94
2022-08-17T05:08:41.786Z,98804.75
2022-08-17T05:11:44.938Z,98803.94
2022-08-17T05:14:47.953Z,98796.56
2022-08-17T05:17:52.105Z,98786.94
2022-08-17T05:20:55.000Z,98792.19
2022-08-17T05:23:58.583Z,98783.84
2022-08-17T05:27:06.648Z,98793.41
2022-08-17T05:30:09.876Z,98789.78
2022-08-17T05:33:15.803Z,98802.38
2022-08-17T05:36:37.986Z,98803.53
2022-08-17T05:39:43.803Z,98792.72
2022-08-17T05:42:47.259Z,98798.69
2022-08-17T05:45:57.090Z,98800.19
2022-08-17T05:49:07.987Z,98800.72
2022-08-17T05:52:19.803Z,98810.69
2022-08-17T05:55:29.963Z,98807.44
2022-08-17T05:58:37.012Z,98794.41
2022-08-17T06:01:47.710Z,98790.94
2022-08-17T06:05:09.925Z,98796.47
2022-08-17T06:08:18.705Z,98797.72
2022-08-17T06:11:26.991Z,98779.66
2022-08-17T06:14:42.684Z,98778.84
2022-08-17T06:17:45.630Z,98779.97
2022-08-17T06:20:51.476Z,98776.75
2022-08-17T06:23:58.297Z,98773.75
2022-08-17T06:27:07.783Z,98774.81
2022-08-17T06:30:13.976Z,98772.16
2022-08-17T06:33:23.419Z,98773.84
2022-08-17T06:36:34.916Z,98777.84
2022-08-17T06:39:44.822Z,98770.38
2022-08-17T06:43:02.000Z,98766.13
2022-08-17T06:46:12.310Z,98764.38
2022-08-17T06:49:20.026Z,98765.22
2022-08-17T06:52:45.974Z,98771.31
2022-08-17T06:55:54.642Z,98764.06
2022-08-17T06:58:58.186Z,98765.91
2022-08-17T07:02:04.878Z,98765.69
2022-08-17T07:05:08.732Z,98765.72
2022-08-17T07:08:18.664Z,98759.06
2022-08-17T07:11:27.326Z,98759.09
2022-08-17T07:14:36.808Z,98758.06
2022-08-17T07:17:47.392Z,98752.00
2022-08-17T07:20:52.493Z,98757.41
2022-08-17T07:24:04.628Z,98749.91
2022-08-17T07:27:12.506Z,98753.16
2022-08-17T07:30:17.636Z,98752.56
2022-08-17T07:33:25.848Z,98747.41
2022-08-17T07:36:34.510Z,98746.06
2022-08-17T07:40:15.550Z,98752.28
2022-08-17T07:43:04.813Z,98743.13
2022-08-17T07:46:32.923Z,98737.31
2022-08-17T07:49:37.199Z,98738.22
2022-08-17T07:52:51.274Z,98731.28
2022-08-17T07:55:56.460Z,98721.22
2022-08-17T07:59:07.623Z,98724.72
2022-08-17T08:02:30.128Z,98727.00
2022-08-17T08:05:50.617Z,98728.81
2022-08-17T08:08:55.939Z,98724.06
2022-08-17T08:12:00.465Z,98724.28
2022-08-17T08:15:05.724Z,98721.09
2022-08-17T08:18:52.482Z,98715.19
2022-08-17T08:21:48.510Z,98720.81
2022-08-17T08:24:57.937Z,98724.09
2022-08-17T08:28:14.745Z,98717.63
2022-08-17T08:31:21.972Z,98722.47
2022-08-17T08:34:53.199Z,98735.41
2022-08-17T08:37:57.945Z,98730.50
2022-08-17T08:41:07.252Z,98731.25
2022-08-17T08:44:18.717Z,98730.63
2022-08-17T08:47:27.091Z,98724.78
2022-08-17T08:50:38.013Z,98726.59
2022-08-17T08:53:43.560Z,98727.88
2022-08-17T08:57:19.736Z,98724.19
2022-08-17T09:00:17.954Z,98722.31
2022-08-17T09:03:50.885Z,98724.84
2022-08-17T09:06:58.142Z,98718.50
2022-08-17T09:10:05.186Z,98720.88
2022-08-17T09:13:15.857Z,98730.75
2022-08-17T09:16:23.251Z,98729.81
2022-08-17T09:19:30.477Z,98728.34
2022-08-17T09:22:35.109Z,98724.09
2022-08-17T09:25:47.468Z,98719.78
2022-08-17T09:28:51.750Z,98728.16
2022-08-17T09:31:56.963Z,98719.84
2022-08-17T09:35:02.080Z,98716.63
2022-08-17T09:38:12.065Z,98721.13
2022-08-17T09:41:17.779Z,98713.09
2022-08-17T09:44:25.885Z,98721.38
2022-08-17T09:47:33.841Z,98718.59
2022-08-17T09:51:03.914Z,98725.41
2022-08-17T09:54:34.802Z,98718.81
2022-08-17T09:57:35.511Z,98725.22
2022-08-17T10:00:42.441Z,98717.03
2022-08-17T10:03:55.917Z,98716.75
2022-08-17T10:07:02.931Z,98717.91
2022-08-17T10:10:14.311Z,98720.56
2022-08-17T10:13:21.415Z,98712.78
2022-08-17T10:16:32.150Z,98715.06
2022-08-17T10:19:39.549Z,98716.31
2022-08-17T10:23:19.540Z,98705.06
2022-08-17T10:26:25.873Z,98704.47
2022-08-17T10:29:47.499Z,98715.91
2022-08-17T10:32:55.523Z,98710.84
2022-08-17T10:36:05.234Z,98717.03
2022-08-17T10:39:19.925Z,98703.03
2022-08-17T10:42:30.417Z,98696.78
2022-08-17T10:45:38.081Z,98689.69
2022-08-17T10:48:42.642Z,98693.22
2022-08-17T10:51:48.032Z,98680.38
2022-08-17T10:55:08.781Z,98677.63
2022-08-17T10:58:21.137Z,98683.31
2022-08-17T11:01:47.076Z,98691.84
2022-08-17T11:04:55.854Z,98692.13
2022-08-17T11:08:32.006Z,98687.16
2022-08-17T11:11:52.610Z,98691.22
2022-08-17T11:15:13.234Z,98677.91
2022-08-17T11:18:31.463Z,98671.84
2022-08-17T11:21:52.828Z,98679.75
2022-08-17T11:24:55.919Z,98675.97
2022-08-17T11:28:08.503Z,98668.84
2022-08-17T11:31:38.402Z,98667.97
2022-08-17T11:34:44.682Z,98667.16
2022-08-17T11:37:52.278Z,98664.56
2022-08-17T11:41:09.070Z,98655.88
2022-08-17T11:44:24.192Z,98661.94
2022-08-17T11:48:16.162Z,98662.00
2022-08-17T11:51:32.228Z,98657.38
2022-08-17T11:54:39.576Z,98663.56
2022-08-17T11:58:06.503Z,98661.47
2022-08-17T12:01:13.636Z,98655.63
2022-08-17T12:04:25.631Z,98661.75
2022-08-17T12:07:30.259Z,98663.38
2022-08-17T12:10:35.549Z,98653.47
2022-08-17T12:13:43.395Z,98654.91
2022-08-17T12:16:58.852Z,98659.25
2022-08-17T12:20:10.252Z,98652.47
2022-08-17T12:23:18.528Z,98661.09
2022-08-17T12:26:23.206Z,98659.34
2022-08-17T12:29:35.566Z,98652.53
2022-08-17T12:32:48.172Z,98659.28
2022-08-17T12:35:59.439Z,98661.38
2022-08-17T12:39:13.772Z,98662.84
2022-08-17T12:42:22.846Z,98666.31
2022-08-17T12:45:27.152Z,98659.31
2022-08-17T12:48:32.268Z,98657.34
2022-08-17T12:51:35.536Z,98653.13
2022-08-17T12:54:53.694Z,98658.38
2022-08-17T12:57:58.501Z,98645.50
2022-08-17T13:01:05.486Z,98663.13
2022-08-17T13:04:14.182Z,98663.69
2022-08-17T13:07:28.248Z,98670.19
2022-08-17T13:10:33.254Z,98668.28
2022-08-17T13:13:39.164Z,98661.47
2022-08-17T13:16:48.369Z,98665.69
2022-08-17T13:19:52.716Z,98659.19
2022-08-17T13:22:57.949Z,98662.13
2022-08-17T13:26:04.504Z,98655.63
2022-08-17T13:29:24.132Z,98653.16
2022-08-17T13:32:35.978Z,98647.63
2022-08-17T13:35:50.535Z,98651.34
2022-08-17T13:39:05.557Z,98644.34
2022-08-17T13:42:28.759Z,98641.41
2022-08-17T13:45:39.198Z,98643.75
2022-08-17T13:48:42.267Z,98642.25
2022-08-17T13:51:47.966Z,98643.13
2022-08-17T13:54:52.626Z,98633.66
2022-08-17T13:58:05.101Z,98635.50
2022-08-17T14:01:25.232Z,98626.19
2022-08-17T14:04:31.647Z,98629.22
2022-08-17T14:07:37.361Z,98627.84
2022-08-17T14:10:40.158Z,98622.91
2022-08-17T14:13:43.013Z,98623.28
2022-08-17T14:16:46.845Z,98616.38
2022-08-17T14:19:49.865Z,98615.22
2022-08-17T14:22:55.779Z,98619.16
2022-08-17T14:25:58.605Z,98627.59
2022-08-17T14:29:01.759Z,98625.72
2022-08-17T14:32:18.028Z,98625.31
2022-08-17T14:35:23.271Z,98619.16
2022-08-17T14:38:28.055Z,98618.91
2022-08-17T14:41:31.037Z,98630.97
2022-08-17T14:44:33.937Z,98619.63
2022-08-17T14:47:37.550Z,98620.66
2022-08-17T14:50:41.675Z,98622.56
2022-08-17T14:53:46.220Z,98619.22
2022-08-17T14:56:48.993Z,98619.53
2022-08-17T14:59:59.870Z,98615.66
2022-08-17T15:03:03.135Z,98612.13
2022-08-17T15:06:06.329Z,98618.69
2022-08-17T15:09:11.024Z,98625.75
2022-08-17T15:12:17.142Z,98613.19
2022-08-17T15:15:19.971Z,98621.13
2022-08-17T15:18:22.919Z,98616.28
2022-08-17T15:21:25.731Z,98609.09
2022-08-17T15:24:30.196Z,98620.78
2022-08-17T15:27:33.108Z,98616.94
2022-08-17T15:30:36.295Z,98611.50
2022-08-17T15:33:39.250Z,98614.16
2022-08-17T15:36:49.235Z,98619.28
2022-08-17T15:39:54.136Z,98612.56
2022-08-17T15:42:57.885Z,98615.00
2022-08-17T15:46:02.164Z,98615.38
2022-08-17T15:49:05.019Z,98622.84
2022-08-17T15:52:16.148Z,98612.38
2022-08-17T15:55:24.181Z,98604.84
2022-08-17T15:58:32.198Z,98600.72
2022-08-17T16:02:15.426Z,98604.97
2022-08-17T16:05:03.527Z,98611.56
2022-08-17T16:08:06.696Z,98601.94
2022-08-17T16:11:11.272Z,98609.19
2022-08-17T16:14:14.056Z,98609.88
2022-08-17T16:17:38.535Z,98601.88
2022-08-17T16:20:40.747Z,98611.28
2022-08-17T16:23:43.708Z,98608.25
2022-08-17T16:26:47.831Z,98610.78
2022-08-17T16:29:55.522Z,98617.53
2022-08-17T16:33:00.328Z,98613.63
2022-08-17T16:36:03.239Z,98613.38
2022-08-17T16:39:06.135Z,98609.44
2022-08-17T16:42:24.561Z,98610.78
2022-08-17T16:45:28.919Z,98614.56
2022-08-17T16:48:32.004Z,98617.16
2022-08-17T16:51:34.908Z,98615.06
2022-08-17T16:54:38.414Z,98607.06
2022-08-17T16:57:47.550Z,98611.25
2022-08-17T17:00:59.990Z,98610.44
2022-08-17T17:04:04.862Z,98605.94
2022-08-17T17:07:12.142Z,98612.00
2022-08-17T17:10:17.054Z,98605.78
2022-08-17T17:13:25.788Z,98612.38
2022-08-17T17:16:35.013Z,98612.78
2022-08-17T17:19:39.023Z,98608.22
2022-08-17T17:22:45.666Z,98615.03
2022-08-17T17:25:54.877Z,98616.72
2022-08-17T17:29:05.021Z,98615.25
2022-08-17T17:32:17.301Z,98616.91
2022-08-17T17:35:24.327Z,98606.50
2022-08-17T17:38:30.322Z,98619.56
2022-08-17T17:41:38.211Z,98626.06
2022-08-17T17:44:45.887Z,98619.00
2022-08-17T17:47:52.857Z,98622.44
2022-08-17T17:51:00.383Z,98634.44
2022-08-17T17:54:09.801Z,98632.63
2022-08-17T17:57:21.433Z,98626.81
2022-08-17T18:00:31.596Z,98626.53
2022-08-17T18:03:49.339Z,98630.03
2022-08-17T18:07:03.968Z,98629.72
2022-08-17T18:10:19.445Z,98628.81
2022-08-17T18:13:35.564Z,98627.00
2022-08-17T18:16:42.949Z,98631.59
2022-08-17T18:19:47.393Z,98623.94
2022-08-17T18:22:50.585Z,98634.28
2022-08-17T18:25:54.819Z,98632.19
2022-08-17T18:28:58.233Z,98632.31
2022-08-17T18:32:16.327Z,98633.13
2022-08-17T18:35:35.267Z,98643.81
2022-08-17T18:38:39.050Z,98637.84
2022-08-17T18:41:43.525Z,98645.47
2022-08-17T18:44:49.580Z,98640.69
2022-08-17T18:47:56.047Z,98645.06
2022-08-17T18:51:01.363Z,98643.34
2022-08-17T18:54:06.802Z,98649.69
2022-08-17T18:57:12.879Z,98638.19
2022-08-17T19:00:17.494Z,98642.25
2022-08-17T19:03:25.296Z,98644.38
2022-08-17T19:06:37.644Z,98644.00
2022-08-17T19:09:46.708Z,98642.97
2022-08-17T19:12:53.936Z,98646.56
2022-08-17T19:16:14.491Z,98635.75
2022-08-17T19:19:22.138Z,98638.69
2022-08-17T19:22:29.183Z,98639.75
2022-08-17T19:25:35.663Z,98641.75
2022-08-17T19:28:42.512Z,98637.34
2022-08-17T19:31:51.524Z,98633.38
2022-08-17T19:35:01.137Z,98643.06
2022-08-17T19:38:13.161Z,98645.97
2022-08-17T19:41:20.804Z,98648.94
2022-08-17T19:44:32.317Z,98645.84
2022-08-17T19:47:58.551Z,98641.47
2022-08-17T19:51:05.332Z,98651.25
2022-08-17T19:54:24.364Z,98652.22
2022-08-17T19:57:39.384Z,98650.00
2022-08-17T20:00:47.807Z,98653.19
2022-08-17T20:04:01.043Z,98649.22
2022-08-17T20:07:13.610Z,98650.84
2022-08-17T20:10:22.020Z,98651.91
2022-08-17T20:13:33.202Z,98647.28
2022-08-17T20:16:38.044Z,98645.91
2022-08-17T20:19:48.243Z,98651.06
2022-08-17T20:22:54.747Z,98649.94
2022-08-17T20:26:04.419Z,98653.88
2022-08-17T20:29:09.572Z,98649.88
2022-08-17T20:32:19.663Z,98654.59
2022-08-17T20:35:24.536Z,98647.06
2022-08-17T20:38:39.505Z,98649.66
2022-08-17T20:42:03.385Z,98649.25
2022-08-17T20:45:21.018Z,98649.41
2022-08-17T20:48:37.920Z,98642.75
2022-08-17T20:52:00.847Z,98650.84
2022-08-17T20:55:05.199Z,98651.97
2022-08-17T20:58:23.348Z,98648.97
2022-08-17T21:01:39.077Z,98646.91
2022-08-17T21:04:47.377Z,98647.94
2022-08-17T21:07:55.707Z,98638.34
2022-08-17T21:11:00.161Z,98627.53
2022-08-17T21:14:08.441Z,98630.34
2022-08-17T21:17:29.733Z,98630.22
2022-08-17T21:20:37.574Z,98623.25
2022-08-17T21:23:52.595Z,98626.34
2022-08-17T21:27:02.140Z,98630.41
2022-08-17T21:30:15.883Z,98634.41
2022-08-17T21:33:25.587Z,98628.53
2022-08-17T21:36:28.499Z,98636.19
2022-08-17T21:39:33.219Z,98636.50
2022-08-17T21:42:38.413Z,98641.41
2022-08-17T21:45:43.023Z,98633.13
2022-08-17T21:48:49.443Z,98624.19
2022-08-17T21:51:57.784Z,98621.88
2022-08-17T21:55:02.541Z,98628.75
2022-08-17T21:58:13.719Z,98618.47
2022-08-17T22:01:22.690Z,98621.53
2022-08-17T22:04:31.746Z,98620.72
2022-08-17T22:07:36.147Z,98618.41
2022-08-17T22:10:41.216Z,98622.69
2022-08-17T22:13:44.337Z,98619.22
2022-08-17T22:16:47.190Z,98625.78
2022-08-17T22:19:53.534Z,98624.16
2022-08-17T22:23:24.894Z,98619.91
2022-08-17T22:26:55.366Z,98622.91
2022-08-17T22:29:59.720Z,98613.22
2022-08-17T22:33:03.254Z,98608.06
2022-08-17T22:36:11.774Z,98611.50
2022-08-17T22:39:29.403Z,98619.69
2022-08-17T22:42:47.380Z,98614.81
2022-08-17T22:45:51.572Z,98617.72
2022-08-17T22:48:57.768Z,98617.75
2022-08-17T22:52:03.262Z,98614.09
2022-08-17T22:55:28.078Z,98613.75
2022-08-17T22:58:58.895Z,98613.53
2022-08-17T23:02:14.207Z,98621.94
2022-08-17T23:05:22.937Z,98620.59
2022-08-17T23:08:27.284Z,98616.22
2022-08-17T23:11:36.593Z,98618.38
2022-08-17T23:14:57.457Z,98622.69
2022-08-17T23:18:04.815Z,98629.53
2022-08-17T23:21:07.887Z,98625.06
2022-08-17T23:24:13.619Z,98627.25
2022-08-17T23:27:16.435Z,98615.22
2022-08-17T23:30:19.443Z,98622.81
2022-08-17T23:33:25.736Z,98627.28
2022-08-17T23:36:29.543Z,98632.81
2022-08-17T23:39:34.029Z,98616.06
2022-08-17T23:42:39.852Z,98625.63
2022-08-17T23:45:49.211Z,98634.47
2022-08-17T23:48:54.166Z,98627.13
2022-08-17T23:51:57.007Z,98631.81
2022-08-17T23:55:01.253Z,98622.69
2022-08-17T23:58:05.448Z,98635.16
